Time;durP1;ratioP1;P1;durP2;ratioP2;P2;SDS_P1;SDS_P2;PMS_P1;PMS_P2;Temp;Humidity;BMP_temperature;BMP_pressure;BME280_temperature;BME280_humidity;BME280_pressure;Samples;Min_cycle;Max_cycle;Signal;HPM_P1;HPM_P2
2022/10/10 00:00:37;;;;;;;2.85;1.95;;;;;;;9.87;100.00;100379.39;1652792;86;20957;-70
2022/10/10 00:03:04;;;;;;;7.62;2.52;;;;;;;9.85;100.00;100378.79;1652577;86;20964;-67
2022/10/10 00:05:31;;;;;;;10.95;4.30;;;;;;;9.83;100.00;100373.36;1652819;86;20905;-71
2022/10/10 00:07:57;;;;;;;2.20;1.77;;;;;;;9.80;100.00;100377.83;1652473;86;21153;-67
2022/10/10 00:10:24;;;;;;;2.75;1.85;;;;;;;9.79;100.00;100374.84;1681144;84;20949;-65
2022/10/10 00:12:52;;;;;;;2.52;2.27;;;;;;;9.77;100.00;100384.49;1681419;84;20921;-74
2022/10/10 00:15:21;;;;;;;5.62;2.00;;;;;;;9.74;100.00;100382.76;1681623;84;20985;-70
2022/10/10 00:17:47;;;;;;;6.62;2.40;;;;;;;9.73;100.00;100378.45;1681819;83;20925;-70
2022/10/10 00:20:17;;;;;;;3.25;2.50;;;;;;;9.73;100.00;100381.14;1683043;84;21401;-72
2022/10/10 00:22:45;;;;;;;3.80;2.33;;;;;;;9.72;100.00;100386.22;1709927;83;20864;-72
2022/10/10 00:25:13;;;;;;;3.83;1.98;;;;;;;9.69;100.00;100387.47;1710164;83;21452;-71
2022/10/10 00:27:40;;;;;;;3.00;1.90;;;;;;;9.66;100.00;100377.71;1678572;85;21117;-75
2022/10/10 00:30:08;;;;;;;2.10;1.95;;;;;;;9.63;100.00;100377.66;1674506;85;21033;-72
2022/10/10 00:32:36;;;;;;;6.33;1.85;;;;;;;9.61;100.00;100391.82;1680557;85;20965;-76
2022/10/10 00:35:04;;;;;;;3.33;2.05;;;;;;;9.61;100.00;100379.73;1692281;83;20910;-76
2022/10/10 00:37:30;;;;;;;2.08;1.90;;;;;;;9.59;100.00;100389.36;1729939;81;20955;-74
2022/10/10 00:39:57;;;;;;;3.45;1.98;;;;;;;9.59;100.00;100382.64;1660889;85;20917;-75
2022/10/10 00:42:24;;;;;;;2.95;2.10;;;;;;;9.58;100.00;100393.11;1669989;85;20960;-76
2022/10/10 00:45:29;;;;;;;2.67;2.00;;;;;;;9.57;100.00;100394.67;1681791;83;20948;-74
2022/10/10 00:48:04;;;;;;;3.30;2.15;;;;;;;9.57;100.00;100392.80;1682134;84;21456;-73
2022/10/10 00:50:33;;;;;;;3.45;2.02;;;;;;;9.51;100.00;100392.36;1709916;83;20928;-71
2022/10/10 00:53:00;;;;;;;2.77;2.30;;;;;;;9.47;100.00;100397.06;1710622;83;20896;-72
2022/10/10 00:55:26;;;;;;;4.28;2.17;;;;;;;9.42;100.00;100399.08;1709944;84;20920;-74
2022/10/10 00:57:53;;;;;;;1.85;1.75;;;;;;;9.39;100.00;100394.17;1703689;82;21267;-82
2022/10/10 01:00:21;;;;;;;3.70;2.05;;;;;;;9.38;100.00;100399.75;1701246;84;20916;-80
2022/10/10 01:02:48;;;;;;;6.50;2.58;;;;;;;9.36;100.00;100393.78;1674901;84;20868;-79
2022/10/10 01:05:14;;;;;;;4.80;1.95;;;;;;;9.34;100.00;100398.05;1652589;86;20889;-83
2022/10/10 01:07:40;;;;;;;8.65;2.72;;;;;;;9.35;100.00;100392.16;1628895;84;21577;-80
2022/10/10 01:10:11;;;;;;;5.40;1.90;;;;;;;9.36;100.00;100399.15;1686463;84;21868;-81
2022/10/10 01:13:04;;;;;;;3.42;2.35;;;;;;;9.33;100.00;100396.41;1702579;84;20921;-79
2022/10/10 01:15:46;;;;;;;7.08;2.12;;;;;;;9.31;100.00;100399.82;1685816;83;21448;-80
2022/10/10 01:18:30;;;;;;;3.25;1.98;;;;;;;9.26;100.00;100402.87;1680066;84;20965;-82
2022/10/10 01:21:34;;;;;;;3.98;1.95;;;;;;;9.21;100.00;100395.50;1681940;85;20906;-83
2022/10/10 01:24:32;;;;;;;5.15;2.22;;;;;;;9.19;100.00;100405.65;1679437;85;20961;-80
2022/10/10 01:27:32;;;;;;;5.25;2.02;;;;;;;9.18;100.00;100414.73;1615057;85;21018;-67
2022/10/10 01:30:11;;;;;;;3.50;2.05;;;;;;;9.14;100.00;100409.52;1607679;83;20989;-70
2022/10/10 01:32:59;;;;;;;2.25;2.05;;;;;;;9.08;100.00;100409.06;1702215;83;20909;-71
2022/10/10 01:35:32;;;;;;;2.65;1.90;;;;;;;9.03;100.00;100412.41;1712843;83;21512;-73
2022/10/10 01:38:29;;;;;;;4.22;2.20;;;;;;;9.00;100.00;100406.16;1713906;82;21307;-72
2022/10/10 01:41:03;;;;;;;2.20;2.00;;;;;;;8.97;100.00;100403.91;1711869;83;20918;-73
2022/10/10 01:43:29;;;;;;;8.70;2.42;;;;;;;8.96;100.00;100406.83;1702339;83;20929;-72
2022/10/10 01:45:56;;;;;;;5.70;2.30;;;;;;;8.96;100.00;100406.31;1712772;82;20933;-71
2022/10/10 01:48:28;;;;;;;3.12;1.98;;;;;;;8.96;100.00;100417.56;1712827;83;20890;-72
2022/10/10 01:51:09;;;;;;;4.90;2.20;;;;;;;8.93;100.00;100417.98;1706696;83;21140;-70
2022/10/10 01:54:03;;;;;;;4.22;2.20;;;;;;;8.87;100.00;100414.86;1712809;83;20907;-67
2022/10/10 01:56:47;;;;;;;2.20;2.00;;;;;;;8.82;100.00;100411.50;1705051;83;20983;-71
2022/10/10 01:59:49;;;;;;;4.62;1.80;;;;;;;8.80;100.00;100420.28;1695952;84;21481;-71
2022/10/10 02:02:49;;;;;;;7.17;2.52;;;;;;;8.77;100.00;100414.55;1699862;84;20909;-69
2022/10/10 02:05:27;;;;;;;2.45;1.98;;;;;;;8.75;100.00;100424.14;1699279;84;21106;-71
2022/10/10 02:08:01;;;;;;;4.00;2.27;;;;;;;8.73;100.00;100435.08;1688772;84;20923;-72
2022/10/10 02:10:34;;;;;;;5.15;1.98;;;;;;;8.71;100.00;100443.06;1697316;83;20974;-72
2022/10/10 02:13:01;;;;;;;3.50;1.90;;;;;;;8.68;100.00;100430.09;1678738;84;20999;-73
2022/10/10 02:15:36;;;;;;;3.42;2.00;;;;;;;8.66;100.00;100439.69;1698280;84;20968;-70
2022/10/10 02:18:04;;;;;;;2.45;2.25;;;;;;;8.62;100.00;100439.83;1699340;84;21301;-71
2022/10/10 02:20:31;;;;;;;2.52;1.80;;;;;;;8.60;100.00;100446.44;1679140;84;20904;-71
2022/10/10 02:22:58;;;;;;;2.80;1.95;;;;;;;8.57;100.00;100454.41;1699778;84;20912;-72
2022/10/10 02:25:28;;;;;;;3.60;1.82;;;;;;;8.54;100.00;100446.78;1688517;84;20967;-71
2022/10/10 02:28:03;;;;;;;2.40;2.20;;;;;;;8.52;100.00;100446.20;1699880;84;20933;-71
2022/10/10 02:30:31;;;;;;;5.83;3.22;;;;;;;8.53;100.00;100453.72;1691094;84;21273;-70
2022/10/10 02:33:00;;;;;;;2.55;2.25;;;;;;;8.52;100.00;100457.44;1656176;84;20880;-70
2022/10/10 02:35:32;;;;;;;5.28;2.33;;;;;;;8.52;100.00;100453.42;1655544;84;20975;-70
2022/10/10 02:37:59;;;;;;;3.70;1.97;;;;;;;8.51;100.00;100446.41;1693014;84;20989;-73
2022/10/10 02:40:29;;;;;;;4.65;3.02;;;;;;;8.51;100.00;100455.79;1695134;84;21647;-73
2022/10/10 02:42:58;;;;;;;4.20;2.60;;;;;;;8.47;100.00;100451.39;1689937;84;21675;-72
2022/10/10 02:45:24;;;;;;;3.52;2.35;;;;;;;8.44;100.00;100453.69;1697271;84;20908;-72
2022/10/10 02:47:51;;;;;;;2.75;2.08;;;;;;;8.40;100.00;100454.63;1701223;84;20922;-71
2022/10/10 02:50:17;;;;;;;2.42;1.80;;;;;;;8.38;100.00;100454.55;1702802;84;20951;-71
2022/10/10 02:52:44;;;;;;;5.92;2.30;;;;;;;8.36;100.00;100457.44;1701943;84;20917;-71
2022/10/10 02:55:10;;;;;;;4.67;2.10;;;;;;;8.37;100.00;100459.60;1703074;84;21140;-71
2022/10/10 02:57:37;;;;;;;4.22;2.08;;;;;;;8.36;100.00;100468.16;1703663;83;20917;-72
2022/10/10 03:00:05;;;;;;;4.70;3.00;;;;;;;8.36;100.00;100454.76;1712451;83;20899;-72
2022/10/10 03:02:32;;;;;;;4.22;2.37;;;;;;;8.35;100.00;100457.64;1690264;83;21497;-75
2022/10/10 03:04:59;;;;;;;7.65;2.22;;;;;;;8.35;100.00;100467.02;1706998;83;21011;-72
2022/10/10 03:07:26;;;;;;;3.47;2.00;;;;;;;8.31;100.00;100459.43;1712764;83;21101;-73
2022/10/10 03:09:52;;;;;;;3.33;2.87;;;;;;;8.27;100.00;100460.05;1712803;82;20876;-72
2022/10/10 03:12:19;;;;;;;4.20;1.82;;;;;;;8.21;100.00;100463.06;1712595;83;20930;-72
2022/10/10 03:14:45;;;;;;;2.92;2.05;;;;;;;8.20;100.00;100470.80;1712532;83;20877;-71
2022/10/10 03:17:12;;;;;;;5.85;2.75;;;;;;;8.19;100.00;100459.80;1712977;83;20976;-70
2022/10/10 03:19:40;;;;;;;4.62;2.83;;;;;;;8.18;100.00;100460.83;1713136;83;20982;-75
2022/10/10 03:22:06;;;;;;;2.70;2.12;;;;;;;8.18;100.00;100464.02;1695151;83;20876;-72
2022/10/10 03:24:32;;;;;;;4.42;2.22;;;;;;;8.17;100.00;100464.53;1703514;83;20917;-71
2022/10/10 03:27:00;;;;;;;4.08;2.80;;;;;;;8.16;100.00;100478.97;1712926;83;20901;-71
2022/10/10 03:29:26;;;;;;;6.62;3.40;;;;;;;8.16;100.00;100474.95;1712293;83;20961;-71
2022/10/10 03:31:53;;;;;;;2.22;2.02;;;;;;;8.14;100.00;100484.25;1705624;83;21108;-70
2022/10/10 03:34:19;;;;;;;2.90;2.00;;;;;;;8.10;100.00;100478.50;1712814;83;20966;-70
2022/10/10 03:36:47;;;;;;;3.60;2.25;;;;;;;8.06;100.00;100478.60;1712703;83;20898;-70
2022/10/10 03:39:13;;;;;;;14.00;2.65;;;;;;;8.05;100.00;100482.86;1712706;83;20885;-70
2022/10/10 03:41:40;;;;;;;3.50;2.20;;;;;;;8.02;100.00;100473.89;1712638;83;20943;-70
2022/10/10 03:44:06;;;;;;;4.10;2.20;;;;;;;8.02;100.00;100482.75;1712567;83;21019;-71
2022/10/10 03:46:34;;;;;;;3.72;3.00;;;;;;;8.02;100.00;100485.42;1712825;83;21435;-70
2022/10/10 03:49:01;;;;;;;4.25;2.12;;;;;;;8.01;100.00;100482.44;1686094;83;20941;-73
2022/10/10 03:51:27;;;;;;;3.90;2.52;;;;;;;7.99;100.00;100485.87;1711938;83;21493;-73
2022/10/10 03:53:55;;;;;;;4.35;3.08;;;;;;;7.99;100.00;100483.19;1713309;83;21478;-70
2022/10/10 03:56:21;;;;;;;9.38;2.60;;;;;;;7.99;100.00;100501.11;1722761;83;24148;-71
2022/10/10 03:58:48;;;;;;;2.87;2.27;;;;;;;7.96;100.00;100489.50;1711649;83;20959;-70
2022/10/10 04:01:14;;;;;;;4.28;2.27;;;;;;;7.91;100.00;100478.09;1696595;84;20915;-71
2022/10/10 04:03:40;;;;;;;4.85;2.47;;;;;;;7.91;100.00;100492.81;1684379;85;20932;-71
2022/10/10 04:06:07;;;;;;;2.80;2.20;;;;;;;7.89;100.00;100490.86;1715195;83;20950;-71
2022/10/10 04:08:35;;;;;;;3.85;2.30;;;;;;;7.88;100.00;100499.41;1715351;83;21156;-70
2022/10/10 04:11:01;;;;;;;4.50;2.25;;;;;;;7.88;100.00;100502.59;1713909;83;20963;-74
2022/10/10 04:13:29;;;;;;;5.70;2.25;;;;;;;7.88;100.00;100499.92;1713575;83;20958;-73
2022/10/10 04:15:56;;;;;;;3.05;2.55;;;;;;;7.88;100.00;100496.72;1714120;83;20970;-71
2022/10/10 04:18:23;;;;;;;4.15;2.42;;;;;;;7.88;100.00;100508.78;1704035;83;20970;-70
2022/10/10 04:20:51;;;;;;;5.97;2.25;;;;;;;7.88;100.00;100510.12;1701512;83;21480;-72
2022/10/10 04:23:18;;;;;;;3.37;2.12;;;;;;;7.87;100.00;100507.64;1727761;82;21460;-71
2022/10/10 04:25:46;;;;;;;4.03;2.45;;;;;;;7.84;100.00;100504.06;1713996;82;20995;-71
2022/10/10 04:28:15;;;;;;;3.05;2.25;;;;;;;7.83;100.00;100519.30;1723203;82;20911;-71
2022/10/10 04:30:42;;;;;;;5.10;2.37;;;;;;;7.84;100.00;100508.08;1689755;83;20978;-69
2022/10/10 04:33:09;;;;;;;2.87;2.12;;;;;;;7.85;100.00;100513.23;1714008;83;21104;-71
2022/10/10 04:35:35;;;;;;;5.25;3.02;;;;;;;7.86;100.00;100518.86;1713745;83;20902;-68
2022/10/10 04:38:02;;;;;;;8.35;2.30;;;;;;;7.87;100.00;100519.69;1713317;83;20967;-72
2022/10/10 04:40:28;;;;;;;2.40;1.95;;;;;;;7.86;100.00;100514.84;1713685;83;21450;-73
2022/10/10 04:42:55;;;;;;;13.10;2.87;;;;;;;7.89;100.00;100521.66;1713750;83;21005;-71
2022/10/10 04:45:25;;;;;;;5.40;2.60;;;;;;;7.92;100.00;100521.73;1713595;83;21511;-70
2022/10/10 04:47:50;;;;;;;2.58;2.35;;;;;;;7.92;100.00;100518.55;1712831;83;20911;-73
2022/10/10 04:50:17;;;;;;;6.17;2.33;;;;;;;7.91;100.00;100524.13;1630677;86;20967;-74
2022/10/10 04:52:43;;;;;;;3.27;2.67;;;;;;;7.90;100.00;100525.98;1671775;84;21063;-71
2022/10/10 04:55:10;;;;;;;7.30;2.37;;;;;;;7.91;100.00;100541.03;1713842;83;21007;-73
2022/10/10 04:57:39;;;;;;;2.75;2.20;;;;;;;7.93;100.00;100522.05;1658327;85;21136;-70
2022/10/10 05:00:08;;;;;;;4.65;2.62;;;;;;;7.95;100.00;100526.69;1710697;83;21440;-71
2022/10/10 05:02:35;;;;;;;6.87;2.60;;;;;;;7.97;100.00;100529.95;1688053;84;20948;-73
2022/10/10 05:05:02;;;;;;;8.33;2.70;;;;;;;7.97;100.00;100530.78;1679311;85;20927;-73
2022/10/10 05:07:30;;;;;;;2.72;1.92;;;;;;;7.98;100.00;100533.77;1706458;84;20956;-73
2022/10/10 05:09:57;;;;;;;2.20;2.00;;;;;;;8.00;100.00;100533.57;1706665;84;21180;-73
2022/10/10 05:12:24;;;;;;;4.70;2.90;;;;;;;8.04;100.00;100556.22;1692813;84;20940;-73
2022/10/10 05:14:50;;;;;;;5.15;2.95;;;;;;;8.07;100.00;100543.21;1652651;86;20944;-73
2022/10/10 05:17:17;;;;;;;5.60;2.30;;;;;;;8.11;100.00;100547.11;1652595;86;20917;-73
2022/10/10 05:19:43;;;;;;;4.05;2.60;;;;;;;8.12;100.00;100568.03;1662603;85;20928;-73
2022/10/10 05:22:10;;;;;;;3.77;2.33;;;;;;;8.12;100.00;100553.29;1681828;84;21122;-74
2022/10/10 05:24:36;;;;;;;5.55;2.50;;;;;;;8.14;100.00;100555.25;1681714;84;20889;-74
2022/10/10 05:27:03;;;;;;;6.35;2.47;;;;;;;8.11;100.00;100556.48;1681882;84;20932;-72
2022/10/10 05:29:29;;;;;;;4.22;2.65;;;;;;;8.10;100.00;100563.41;1681884;84;20981;-70
2022/10/10 05:31:56;;;;;;;3.75;2.67;;;;;;;8.14;100.00;100556.59;1681828;85;20925;-74
2022/10/10 05:34:22;;;;;;;3.08;2.15;;;;;;;8.18;100.00;100560.48;1681969;84;21034;-73
2022/10/10 05:36:49;;;;;;;9.03;2.17;;;;;;;8.22;100.00;100552.32;1681683;85;20936;-72
2022/10/10 05:39:15;;;;;;;4.97;2.10;;;;;;;8.26;100.00;100557.55;1679418;85;21040;-71
2022/10/10 05:41:41;;;;;;;3.58;2.45;;;;;;;8.32;100.00;100570.14;1710671;83;20984;-73
2022/10/10 05:44:09;;;;;;;2.85;2.40;;;;;;;8.35;100.00;100563.52;1710427;83;21468;-71
2022/10/10 05:46:36;;;;;;;5.47;4.50;;;;;;;8.40;100.00;100565.04;1710131;83;21213;-72
2022/10/10 05:49:02;;;;;;;3.65;2.30;;;;;;;8.45;100.00;100574.60;1709688;82;21035;-75
2022/10/10 05:51:29;;;;;;;3.62;2.25;;;;;;;8.49;100.00;100569.14;1690213;84;20927;-72
2022/10/10 05:53:56;;;;;;;2.25;1.80;;;;;;;8.48;100.00;100576.36;1704154;84;20968;-72
2022/10/10 05:56:23;;;;;;;6.55;2.45;;;;;;;8.45;100.00;100579.97;1699094;84;20936;-75
2022/10/10 05:58:50;;;;;;;3.83;2.30;;;;;;;8.47;100.00;100568.01;1736400;82;21148;-71
2022/10/10 06:01:17;;;;;;;2.62;2.30;;;;;;;8.51;100.00;100579.12;1733083;82;20951;-72
2022/10/10 06:03:43;;;;;;;3.50;2.15;;;;;;;8.56;100.00;100578.78;1726323;82;20883;-73
2022/10/10 06:06:10;;;;;;;5.03;2.37;;;;;;;8.63;100.00;100579.55;1723446;83;20892;-71
2022/10/10 06:08:37;;;;;;;7.97;2.72;;;;;;;8.67;100.00;100585.33;1724187;83;20958;-73
2022/10/10 06:11:11;;;;;;;5.78;4.45;;;;;;;8.67;100.00;100589.35;1724613;83;21367;-71
2022/10/10 06:13:36;;;;;;;4.28;2.67;;;;;;;8.72;100.00;100593.03;1724248;83;20913;-71
2022/10/10 06:16:04;;;;;;;3.65;2.02;;;;;;;8.78;100.00;100587.30;1698429;83;20930;-69
2022/10/10 06:18:31;;;;;;;6.40;2.98;;;;;;;8.82;100.00;100591.22;1722300;83;21471;-73
2022/10/10 06:21:04;;;;;;;2.70;2.50;;;;;;;8.89;100.00;100593.84;1723732;83;21856;-72
2022/10/10 06:23:31;;;;;;;4.87;2.75;;;;;;;8.93;100.00;100584.31;1717859;83;21121;-70
2022/10/10 06:25:57;;;;;;;9.25;3.98;;;;;;;9.02;100.00;100592.41;1727053;81;20904;-72
2022/10/10 06:28:24;;;;;;;2.90;2.58;;;;;;;9.05;100.00;100584.77;1720959;81;21425;-73
2022/10/10 06:30:50;;;;;;;5.95;2.60;;;;;;;9.11;100.00;100606.67;1699823;83;21526;-74
2022/10/10 06:33:18;;;;;;;6.22;2.37;;;;;;;9.17;100.00;100609.02;1744709;81;21458;-71
2022/10/10 06:35:46;;;;;;;4.72;2.77;;;;;;;9.20;100.00;100595.18;1754419;81;21111;-72
2022/10/10 06:38:13;;;;;;;4.17;2.50;;;;;;;9.20;100.00;100585.78;1718221;83;20928;-72
2022/10/10 06:40:40;;;;;;;6.72;2.22;;;;;;;9.26;100.00;100591.59;1722340;83;20988;-71
2022/10/10 06:43:10;;;;;;;6.58;2.30;;;;;;;9.35;100.00;100595.65;1724058;83;20901;-70
2022/10/10 06:45:42;;;;;;;5.65;2.00;;;;;;;9.43;100.00;100594.56;1724969;83;20914;-73
2022/10/10 06:48:11;;;;;;;5.65;1.98;;;;;;;9.49;100.00;100601.23;1718854;83;21246;-73
2022/10/10 06:50:40;;;;;;;7.25;2.77;;;;;;;9.57;99.97;100608.17;1724736;83;21629;-73
2022/10/10 06:53:08;;;;;;;4.08;2.12;;;;;;;9.56;98.70;100610.55;1723057;82;20862;-73
2022/10/10 06:55:35;;;;;;;3.30;2.00;;;;;;;9.58;98.22;100603.94;1710415;83;21019;-74
2022/10/10 06:58:02;;;;;;;3.40;2.20;;;;;;;9.60;98.03;100605.86;1673461;83;20983;-73
2022/10/10 07:00:34;;;;;;;3.00;2.17;;;;;;;9.61;97.53;100602.14;1707635;82;21146;-75
2022/10/10 07:03:04;;;;;;;5.95;2.80;;;;;;;9.63;97.31;100601.92;1733475;81;20976;-72
2022/10/10 07:05:33;;;;;;;2.70;2.40;;;;;;;9.69;97.46;100605.59;1729398;81;20955;-73
2022/10/10 07:08:03;;;;;;;2.33;2.00;;;;;;;9.73;96.93;100602.24;1710680;82;21117;-77
2022/10/10 07:10:32;;;;;;;3.67;2.45;;;;;;;9.80;96.32;100608.88;1733047;82;21878;-74
2022/10/10 07:13:00;;;;;;;3.95;2.30;;;;;;;9.83;95.98;100617.85;1685243;82;21119;-73
2022/10/10 07:15:28;;;;;;;9.83;2.37;;;;;;;9.86;95.19;100603.97;1733839;82;20879;-74
2022/10/10 07:17:57;;;;;;;8.00;5.00;;;;;;;9.88;94.36;100609.40;1738261;81;21445;-73
2022/10/10 07:20:26;;;;;;;8.55;3.25;;;;;;;9.90;94.18;100603.81;1764359;81;20974;-72
2022/10/10 07:22:53;;;;;;;4.35;3.95;;;;;;;9.90;92.96;100609.19;1737189;81;20964;-75
2022/10/10 07:25:19;;;;;;;5.80;2.95;;;;;;;9.93;93.02;100612.23;1733782;82;21118;-73
2022/10/10 07:27:46;;;;;;;3.77;2.47;;;;;;;10.00;92.71;100612.19;1740808;81;20909;-75
2022/10/10 07:30:12;;;;;;;6.00;2.75;;;;;;;10.05;92.71;100602.92;1709716;82;21560;-76
2022/10/10 07:32:39;;;;;;;6.30;3.62;;;;;;;10.12;92.47;100600.97;1732102;82;20985;-73
2022/10/10 07:35:08;;;;;;;6.15;3.40;;;;;;;10.20;92.54;100598.03;1709372;82;20969;-77
2022/10/10 07:37:40;;;;;;;5.00;3.37;;;;;;;10.30;91.81;100617.67;1729428;81;21113;-72
2022/10/10 07:40:08;;;;;;;6.15;3.37;;;;;;;10.37;91.11;100604.95;1723920;82;21452;-71
2022/10/10 07:42:36;;;;;;;7.65;3.70;;;;;;;10.42;90.89;100615.33;1723197;81;21839;-77
2022/10/10 07:45:04;;;;;;;9.45;3.72;;;;;;;10.47;90.33;100598.52;1732097;82;20892;-73
2022/10/10 07:47:31;;;;;;;5.87;3.87;;;;;;;10.55;90.27;100596.84;1732648;81;20976;-74
2022/10/10 07:49:57;;;;;;;5.60;3.77;;;;;;;10.63;88.87;100611.34;1731489;81;21114;-73
2022/10/10 07:52:24;;;;;;;4.37;2.62;;;;;;;10.67;88.33;100601.77;1732669;81;20948;-76
2022/10/10 07:54:50;;;;;;;2.30;2.10;;;;;;;10.71;87.93;100599.43;1715046;81;20945;-73
2022/10/10 07:57:17;;;;;;;4.25;2.52;;;;;;;10.66;86.95;100616.26;1725497;81;21510;-75
2022/10/10 07:59:44;;;;;;;4.58;2.72;;;;;;;10.70;86.92;100609.89;1729568;81;20964;-75
2022/10/10 08:02:11;;;;;;;4.15;2.45;;;;;;;10.74;86.75;100607.86;1733248;81;20984;-69
2022/10/10 08:04:39;;;;;;;4.72;2.05;;;;;;;10.83;86.36;100598.97;1729920;81;20914;-76
2022/10/10 08:07:10;;;;;;;3.90;2.00;;;;;;;10.88;84.68;100601.79;1732206;81;20912;-69
2022/10/10 08:09:39;;;;;;;4.83;2.80;;;;;;;10.97;84.91;100592.86;1684982;82;21071;-68
2022/10/10 08:12:06;;;;;;;5.45;2.70;;;;;;;11.05;85.01;100588.48;1731268;81;20957;-71
2022/10/10 08:14:32;;;;;;;2.22;2.00;;;;;;;11.06;83.97;100599.02;1700187;82;21134;-68
2022/10/10 08:17:03;;;;;;;3.55;1.85;;;;;;;11.11;84.03;100592.42;1733257;82;20972;-70
2022/10/10 08:19:30;;;;;;;4.17;2.52;;;;;;;11.13;83.35;100599.73;1733508;81;20908;-69
2022/10/10 08:21:58;;;;;;;2.98;1.90;;;;;;;11.16;83.33;100599.28;1716984;82;20920;-71
2022/10/10 08:24:25;;;;;;;6.97;2.35;;;;;;;11.23;83.23;100601.85;1711792;81;21104;-78
2022/10/10 08:26:51;;;;;;;6.78;2.35;;;;;;;11.31;82.13;100601.02;1733271;81;21155;-70
2022/10/10 08:29:18;;;;;;;4.65;2.35;;;;;;;11.39;81.18;100605.22;1722668;82;20888;-67
2022/10/10 08:31:44;;;;;;;2.33;1.75;;;;;;;11.47;81.31;100602.17;1725445;81;20873;-66
2022/10/10 08:34:13;;;;;;;2.83;1.90;;;;;;;11.49;81.62;100614.08;1719248;82;21552;-70
2022/10/10 08:36:40;;;;;;;2.72;2.08;;;;;;;11.54;82.03;100614.20;1698069;82;20909;-73
2022/10/10 08:39:09;;;;;;;4.45;2.37;;;;;;;11.61;81.25;100608.98;1729484;81;21138;-72
2022/10/10 08:41:50;;;;;;;3.83;2.52;;;;;;;11.69;81.29;100605.12;1721747;82;21035;-72
2022/10/10 08:44:54;;;;;;;3.40;2.00;;;;;;;11.77;80.25;100596.71;1710636;82;20872;-73
2022/10/10 08:47:38;;;;;;;5.47;1.90;;;;;;;11.84;77.63;100638.38;1696084;82;21093;-77
2022/10/10 08:50:19;;;;;;;3.72;2.37;;;;;;;11.85;77.40;100607.13;1706480;82;20931;-72
2022/10/10 08:52:56;;;;;;;3.55;1.90;;;;;;;11.90;78.18;100631.50;1699264;82;21126;-72
2022/10/10 08:55:33;;;;;;;3.02;1.67;;;;;;;11.97;77.99;100598.52;1735435;82;20968;-73
2022/10/10 08:58:23;;;;;;;4.50;2.10;;;;;;;12.03;76.83;100631.28;1759905;81;20855;-71
2022/10/10 09:01:19;;;;;;;2.17;1.80;;;;;;;12.07;75.94;100604.13;1739541;81;20994;-74
2022/10/10 09:03:48;;;;;;;2.00;1.50;;;;;;;12.08;75.31;100606.30;1746109;80;20920;-74
2022/10/10 09:06:41;;;;;;;5.00;2.10;;;;;;;12.12;75.94;100615.03;1746666;81;21155;-76
2022/10/10 09:09:22;;;;;;;4.62;2.60;;;;;;;12.19;74.91;100614.88;1744552;81;20940;-68
2022/10/10 09:11:54;;;;;;;4.67;1.52;;;;;;;12.23;73.98;100615.51;1736211;81;20916;-72
2022/10/10 09:14:35;;;;;;;2.17;1.65;;;;;;;12.25;71.86;100638.20;1749743;80;20930;-71
2022/10/10 09:17:17;;;;;;;2.37;1.67;;;;;;;12.21;71.52;100609.55;1728025;81;20997;-72
2022/10/10 09:20:10;;;;;;;2.27;1.57;;;;;;;12.24;71.88;100597.45;1739646;80;22587;-70
2022/10/10 09:23:03;;;;;;;2.72;1.60;;;;;;;12.27;71.60;100616.41;1755634;81;20948;-72
2022/10/10 09:25:33;;;;;;;3.58;2.10;;;;;;;12.34;72.01;100622.47;1750772;81;20967;-69
2022/10/10 09:28:17;;;;;;;2.37;1.90;;;;;;;12.35;71.19;100624.94;1718997;82;20896;-70
2022/10/10 09:31:17;;;;;;;6.65;1.67;;;;;;;12.39;70.75;100632.84;1745514;80;20974;-68
2022/10/10 09:33:55;;;;;;;4.97;1.60;;;;;;;12.42;69.75;100624.81;1709782;81;22168;-77
2022/10/10 11:58:44;;;;;;;1.57;1.30;;;;;;;14.43;49.90;100583.23;1720734;79;26285;-73
2022/10/10 12:01:30;;;;;;;1.90;1.40;;;;;;;14.50;49.08;100588.44;1726849;82;20912;-74
2022/10/10 12:03:56;;;;;;;1.72;1.62;;;;;;;14.60;49.63;100593.97;1710037;82;21040;-73
2022/10/10 12:06:34;;;;;;;1.72;1.40;;;;;;;14.72;48.33;100590.59;1675356;84;21068;-71
2022/10/10 12:09:22;;;;;;;1.30;1.20;;;;;;;14.79;48.04;100592.02;1686265;85;20986;-74
2022/10/10 12:12:03;;;;;;;2.60;1.40;;;;;;;14.79;46.92;100605.55;1705722;83;20996;-76
2022/10/10 12:14:30;;;;;;;1.57;1.05;;;;;;;14.70;45.29;100643.64;1703416;83;21611;-79
2022/10/10 12:16:58;;;;;;;1.15;1.15;;;;;;;14.69;44.27;100578.36;1715790;83;21242;-75
2022/10/10 12:19:28;;;;;;;3.50;1.15;;;;;;;14.69;42.84;100601.91;1695609;83;20991;-73
2022/10/10 12:22:01;;;;;;;2.95;1.65;;;;;;;14.65;41.97;100589.43;1689011;83;21048;-73
2022/10/10 12:24:34;;;;;;;2.55;1.65;;;;;;;14.62;41.38;100591.30;1673490;85;20999;-73
2022/10/10 12:27:06;;;;;;;4.47;1.45;;;;;;;14.64;41.43;100592.38;1724879;83;21557;-72
2022/10/10 12:30:08;;;;;;;1.12;1.00;;;;;;;14.63;41.84;100596.16;1673405;85;21781;-75
2022/10/10 12:32:42;;;;;;;1.30;1.20;;;;;;;14.64;41.37;100578.31;1721439;82;21428;-71
2022/10/10 12:35:33;;;;;;;0.97;0.97;;;;;;;14.68;40.60;100594.33;1730963;82;21086;-72
2022/10/10 12:38:11;;;;;;;1.10;0.98;;;;;;;14.63;40.38;100609.69;1730578;82;20999;-71
2022/10/10 12:41:14;;;;;;;1.27;1.17;;;;;;;14.55;40.50;100599.33;1714452;82;21111;-73
2022/10/10 12:43:54;;;;;;;1.45;1.35;;;;;;;14.60;40.32;100604.27;1655793;84;21196;-71
2022/10/10 12:46:31;;;;;;;2.30;1.20;;;;;;;14.67;39.58;100594.60;1695800;84;21055;-69
2022/10/10 12:49:20;;;;;;;3.05;1.10;;;;;;;14.72;38.80;100591.95;1699889;84;21615;-72
2022/10/10 12:52:34;;;;;;;2.30;1.65;;;;;;;14.77;38.80;100588.73;1677987;84;21036;-76
2022/10/10 12:55:31;;;;;;;2.52;1.25;;;;;;;14.83;39.18;100613.45;1701539;84;21096;-68
2022/10/10 12:58:01;;;;;;;2.42;1.35;;;;;;;14.95;39.44;100584.05;1700364;84;21105;-67
2022/10/10 13:00:46;;;;;;;1.67;1.20;;;;;;;15.01;39.32;100598.72;1700537;84;21110;-71
2022/10/10 13:03:21;;;;;;;3.83;1.20;;;;;;;15.05;39.82;100590.38;1754759;80;20997;-72
2022/10/10 13:05:50;;;;;;;3.80;2.15;;;;;;;15.13;40.27;100599.92;1746372;81;20984;-74
2022/10/10 13:08:19;;;;;;;4.87;1.90;;;;;;;15.25;40.37;100598.66;1711690;83;21155;-78
2022/10/10 13:11:10;;;;;;;4.10;1.80;;;;;;;15.35;40.37;100588.44;1673098;84;21099;-77
2022/10/10 13:13:50;;;;;;;4.95;2.80;;;;;;;15.37;40.51;100582.77;1700909;84;20948;-77
2022/10/10 13:16:21;;;;;;;3.95;2.17;;;;;;;15.32;40.55;100597.10;1683799;84;21552;-76
2022/10/10 13:18:51;;;;;;;3.35;2.00;;;;;;;15.32;41.20;100593.04;1672792;85;21612;-78
2022/10/10 13:21:24;;;;;;;2.62;1.95;;;;;;;15.34;41.29;100600.38;1672642;85;21033;-77
2022/10/10 13:23:53;;;;;;;3.42;2.40;;;;;;;15.42;41.63;100590.41;1692635;84;21064;-75
2022/10/10 13:26:27;;;;;;;6.15;3.17;;;;;;;15.46;41.67;100595.59;1699594;84;21031;-76
2022/10/10 13:28:56;;;;;;;4.25;1.50;;;;;;;15.45;41.35;100575.50;1699376;84;20964;-71
2022/10/10 13:31:25;;;;;;;6.12;2.67;;;;;;;15.43;41.33;100590.70;1701039;84;21052;-71
2022/10/10 13:34:13;;;;;;;2.62;1.98;;;;;;;15.43;41.50;100592.05;1691106;84;21094;-74
2022/10/10 13:37:03;;;;;;;3.92;2.30;;;;;;;15.41;40.77;100580.63;1689277;84;21307;-72
2022/10/10 13:39:35;;;;;;;1.80;1.50;;;;;;;15.30;41.23;100578.91;1739410;81;20976;-71
2022/10/10 13:42:04;;;;;;;6.37;2.12;;;;;;;15.37;41.26;100602.57;1733658;82;21059;-69
2022/10/10 13:44:48;;;;;;;4.17;2.42;;;;;;;15.39;41.46;100593.66;1679446;83;21030;-71
2022/10/10 13:47:54;;;;;;;1.55;1.42;;;;;;;15.41;41.41;100581.99;1700396;84;21137;-70
2022/10/10 13:50:43;;;;;;;1.42;1.17;;;;;;;15.37;41.54;100592.27;1701243;84;21807;-69
2022/10/10 13:53:45;;;;;;;2.65;1.27;;;;;;;15.23;41.52;100585.92;1679964;85;21076;-71
2022/10/10 13:56:37;;;;;;;1.60;1.50;;;;;;;15.23;41.86;100604.08;1676580;84;21071;-72
2022/10/10 13:59:11;;;;;;;1.70;1.42;;;;;;;15.12;42.17;100588.26;1699853;84;21062;-71
2022/10/10 14:01:44;;;;;;;4.28;1.25;;;;;;;14.89;42.28;100588.59;1699350;84;21088;-73
2022/10/10 14:04:19;;;;;;;1.60;1.50;;;;;;;14.74;42.30;100623.64;1700033;84;21271;-74
2022/10/10 14:06:53;;;;;;;2.65;1.90;;;;;;;14.63;42.27;100594.80;1691786;82;21121;-68
2022/10/10 14:09:50;;;;;;;1.77;1.50;;;;;;;14.50;42.41;100593.84;1673000;84;21688;-68
2022/10/10 14:12:35;;;;;;;7.58;2.47;;;;;;;14.42;42.67;100583.48;1703206;83;20993;-68